Terminal Aerodrome Forecast
Issued by NWS Cleveland, OH

Home | Current Version | Previous Version | Graphics & Text | Print | Product List | Glossary Off
Versions: 1 2 3 4 5 6 7 8 9 10 11 12 13 14 15 16

000
FTUS41 KCLE 282000 AAA
TAFTOL
TAF AMD
KTOL 282021Z 2820/2918 20008KT P6SM SCT025 BKN050
      TEMPO 2820/2822 1SM -SHSN SCT015 OVC025
     FM290400 18006KT P6SM SCT035 OVC050 PROB30 2908/2911 6SM -FZDZ
      SCT025 OVC035
     FM291500 20010G18KT P6SM VCSH BKN035 OVC100=

USA.gov is the U.S. government's official web portal to all federal, state and local government web resources and services.